Chalk River, Canada
Current Conditions -  °F | °C
As of 5:00 AM on Thursday 18 Dec 2014 (Local Time) from CYWA Reporting Station
Overcast Overcast  
Wind Chill: 17°   Ceiling: 1400
Heat Index: 27°   Visibility: 9mi
Dew Point: 23°   Wind: 10mph
Humidity: 86%   Direction: 300°WNW
Pressure: 29.93"   Gusts: NA
Location:  46.02°N, 77.45°W
Report Text: CYWA 181000Z AUTO 30009KT 9SM OVC014 M03/M05 A2993 RMK SLP141
Loading
Personal Weather Stations






























Interactive Weather Map New forecast layout! Learn more

10-Day Weather Forecast

Advertisements
Track Severe Weather on mobile